Islandton, SC (29929)

12:31 PM EDT on July 28, 2014 (GMT -0400)
KQ4WH, Skunkworks (KSCSMOAK1) Elev 108 ft | 33.09 °N, 80.81 °W | Change Station
Active Advisory: Heat Advisory Active Notice: Record Report

Current weather conditions updated 0 second ago

Mostly Cloudy
Mostly Cloudy
88.5 °F
Feels Like 103 °F
N
0.0
Wind Variable Wind from SSW
Gusts 15.4 mph

Today is forecast to be nearly the same temperature as yesterday. Scattered thunderstorms possible.

Today
High -- | Low -- °F
--% Chance of Precip.
Yesterday
High -- | Low -- °F
Precip. -- in
6:34 AM 8:25 PM
Waxing Crescent, 3% visible
Pressure 29.89 in
Visibility 10.0 miles
Clouds Mostly Cloudy 2700 ft
Mostly Cloudy 3500 ft
Heat Index 103 °F
Dew Point 79 °F
Humidity 73%
Rainfall 0.00 in
Snow Depth Not available.
UV 7 out of 12
Pollen 5.90 out of 12
Air Quality Not available.
Flu Activity Not available.
METAR KRBW 281615Z AUTO 26010G20KT 10SM BKN027 BKN035 32/22 A2989 RMK AO2

More Conditions Fewer Conditions

Pressure 29.89 in
Visibility 10.0 miles
Clouds Mostly Cloudy 2700 ft
Mostly Cloudy 3500 ft
Heat Index 103 °F
Dew Point 79 °F
Humidity 73%
Rainfall 0.00 in
Snow Depth Not available.
UV 7 out of 12
Pollen 5.90 out of 12
Air Quality Not available.
Flu Activity Not available.
METAR KRBW 281615Z AUTO 26010G20KT 10SM BKN027 BKN035 32/22 A2989 RMK AO2

More Conditions Fewer Conditions

10-Day Weather Forecast

Almanac

Astronomy

Jul. 28, 2014 Rise Set
Actual Time 6:34 AM EDT 8:25 PM EDT
Civil Twilight 6:07 AM EDT 8:52 PM EDT
Nautical Twilight 5:34 AM EDT 9:25 PM EDT
Astronomical Twilight 4:59 AM EDT 10:00 PM EDT
Moon 8:06 AM EDT 9:15 PM EDT
Length of Visible Light 14h 45m
Length of Day
13h 51m
Tomorrow will be 1m 26s shorter.
Waxing Crescent, 3% of the Moon is Illuminated
Today
Waxing Crescent
Aug 3
First Quarter
Aug 10
Full
Aug 17
Last Quarter
Aug 25
New

Today's Extremes

State Highs State Lows

Community

WunderPhotos

Upload Photos

1,738,407 photos uploaded!

Nearby

Snow Depth

Station Depth Elevation
No new snow has been reported.

Earthquake Activity

City Distance Mag. Time & Date
No recent earthquake activity has been reported nearby.
Minimum magnitude displayed is 2.5.

Coastal Water Temperatures

Place Temperature
No Stations Reporting

Nearby Weather Stations

Station Location Temp. Heat Index Dew Point Humidity Wind Precip. Elev Updated Type
KQ4WH, Skunkworks, Smoaks, SC 88.5 °F 103 °F 79 °F 73% SSW  at  0.0 mph 0.00 in / hr 108 ft 12:31 PM EDT Normal
Joe Miley Road, Brunson, SC 92.7 °F 112 °F 80 °F 67% WNW  at  4.7 mph - / hr 130 ft 12:16 PM EDT Normal
Wood Road, Green Pond, SC 89.9 °F 114 °F 83 °F 81% NE  at  0.0 mph 0.00 in / hr 40 ft 12:31 PM EDT Normal
RAWS SAVANNAH PORTABLE SC, Yemassee, SC 90 °F 104 °F 78 °F 67% WNW  at  4 mph 0.00 in / hr 6 ft 11:23 AM EDT MADIS

Show More Stations Show Fewer Stations